sensor_id;sensor_type;location;lat;lon;timestamp;P1;durP1;ratioP1;P2;durP2;ratioP2
34988;SDS011;21192;40.182;44.516;2022-08-01T00:00:33;8.93;;;4.93;;
34988;SDS011;21192;40.182;44.516;2022-08-01T00:03:00;7.07;;;4.53;;
34988;SDS011;21192;40.182;44.516;2022-08-01T00:05:26;10.23;;;4.30;;
34988;SDS011;21192;40.182;44.516;2022-08-01T00:07:52;10.45;;;4.32;;
34988;SDS011;21192;40.182;44.516;2022-08-01T00:10:18;6.78;;;3.92;;
34988;SDS011;21192;40.182;44.516;2022-08-01T00:12:44;10.88;;;4.20;;
34988;SDS011;21192;40.182;44.516;2022-08-01T00:15:11;8.50;;;4.72;;
34988;SDS011;21192;40.182;44.516;2022-08-01T00:17:39;8.02;;;4.22;;
34988;SDS011;21192;40.182;44.516;2022-08-01T00:20:09;11.77;;;3.85;;
34988;SDS011;21192;40.182;44.516;2022-08-01T00:22:38;9.85;;;4.03;;
34988;SDS011;21192;40.182;44.516;2022-08-01T00:25:04;10.75;;;5.00;;
34988;SDS011;21192;40.182;44.516;2022-08-01T00:27:31;11.70;;;5.30;;
34988;SDS011;21192;40.182;44.516;2022-08-01T00:29:57;10.73;;;5.00;;
34988;SDS011;21192;40.182;44.516;2022-08-01T00:32:23;7.90;;;4.18;;
34988;SDS011;21192;40.182;44.516;2022-08-01T00:34:49;12.43;;;4.15;;
34988;SDS011;21192;40.182;44.516;2022-08-01T00:37:15;8.82;;;4.25;;
34988;SDS011;21192;40.182;44.516;2022-08-01T00:39:42;5.22;;;3.97;;
34988;SDS011;21192;40.182;44.516;2022-08-01T00:42:08;11.75;;;4.40;;
34988;SDS011;21192;40.182;44.516;2022-08-01T00:44:35;10.52;;;4.28;;
34988;SDS011;21192;40.182;44.516;2022-08-01T00:47:02;9.05;;;4.15;;
34988;SDS011;21192;40.182;44.516;2022-08-01T00:49:29;14.93;;;4.50;;
34988;SDS011;21192;40.182;44.516;2022-08-01T00:51:55;12.55;;;4.20;;
34988;SDS011;21192;40.182;44.516;2022-08-01T00:54:22;9.45;;;4.22;;
34988;SDS011;21192;40.182;44.516;2022-08-01T00:56:50;13.75;;;4.05;;
34988;SDS011;21192;40.182;44.516;2022-08-01T00:59:20;9.57;;;4.70;;
34988;SDS011;21192;40.182;44.516;2022-08-01T01:01:47;13.80;;;4.75;;
34988;SDS011;21192;40.182;44.516;2022-08-01T01:04:14;9.25;;;3.45;;
34988;SDS011;21192;40.182;44.516;2022-08-01T01:06:44;9.23;;;4.53;;
34988;SDS011;21192;40.182;44.516;2022-08-01T01:12:32;9.52;;;3.65;;
34988;SDS011;21192;40.182;44.516;2022-08-01T01:15:08;9.18;;;3.78;;
34988;SDS011;21192;40.182;44.516;2022-08-01T01:17:51;8.30;;;3.70;;
34988;SDS011;21192;40.182;44.516;2022-08-01T01:20:24;11.10;;;4.20;;
34988;SDS011;21192;40.182;44.516;2022-08-01T01:31:06;7.70;;;3.45;;
34988;SDS011;21192;40.182;44.516;2022-08-01T01:33:34;12.48;;;4.00;;
34988;SDS011;21192;40.182;44.516;2022-08-01T01:36:03;13.73;;;3.67;;
34988;SDS011;21192;40.182;44.516;2022-08-01T01:38:34;11.77;;;3.47;;
34988;SDS011;21192;40.182;44.516;2022-08-01T01:41:10;14.98;;;4.20;;
34988;SDS011;21192;40.182;44.516;2022-08-01T01:43:38;12.35;;;3.78;;
34988;SDS011;21192;40.182;44.516;2022-08-01T01:46:05;15.20;;;4.22;;
34988;SDS011;21192;40.182;44.516;2022-08-01T01:48:33;15.05;;;4.05;;
34988;SDS011;21192;40.182;44.516;2022-08-01T01:51:00;9.85;;;3.95;;
34988;SDS011;21192;40.182;44.516;2022-08-01T01:53:28;10.70;;;3.80;;
34988;SDS011;21192;40.182;44.516;2022-08-01T01:55:55;12.77;;;4.13;;
34988;SDS011;21192;40.182;44.516;2022-08-01T01:58:23;11.60;;;3.97;;
34988;SDS011;21192;40.182;44.516;2022-08-01T02:00:51;12.65;;;3.88;;
34988;SDS011;21192;40.182;44.516;2022-08-01T02:03:20;12.13;;;4.15;;
34988;SDS011;21192;40.182;44.516;2022-08-01T02:05:49;12.07;;;4.40;;
34988;SDS011;21192;40.182;44.516;2022-08-01T02:08:17;16.38;;;4.65;;
34988;SDS011;21192;40.182;44.516;2022-08-01T02:10:44;14.70;;;4.32;;
34988;SDS011;21192;40.182;44.516;2022-08-01T02:13:31;12.68;;;4.15;;
34988;SDS011;21192;40.182;44.516;2022-08-01T02:15:59;20.55;;;4.72;;
34988;SDS011;21192;40.182;44.516;2022-08-01T02:18:26;11.20;;;3.92;;
34988;SDS011;21192;40.182;44.516;2022-08-01T02:20:52;15.93;;;4.78;;
34988;SDS011;21192;40.182;44.516;2022-08-01T02:23:20;12.15;;;4.10;;
34988;SDS011;21192;40.182;44.516;2022-08-01T02:25:49;11.27;;;3.83;;
34988;SDS011;21192;40.182;44.516;2022-08-01T02:28:25;15.88;;;4.35;;
34988;SDS011;21192;40.182;44.516;2022-08-01T02:31:06;10.48;;;3.33;;
34988;SDS011;21192;40.182;44.516;2022-08-01T02:33:38;15.27;;;4.03;;
34988;SDS011;21192;40.182;44.516;2022-08-01T02:36:13;13.68;;;3.80;;
34988;SDS011;21192;40.182;44.516;2022-08-01T02:38:42;11.82;;;4.05;;
34988;SDS011;21192;40.182;44.516;2022-08-01T02:41:11;13.05;;;3.80;;
34988;SDS011;21192;40.182;44.516;2022-08-01T02:43:43;12.35;;;3.80;;
34988;SDS011;21192;40.182;44.516;2022-08-01T02:46:16;11.32;;;3.63;;
34988;SDS011;21192;40.182;44.516;2022-08-01T02:48:46;10.75;;;3.85;;
34988;SDS011;21192;40.182;44.516;2022-08-01T02:51:15;11.60;;;4.10;;
34988;SDS011;21192;40.182;44.516;2022-08-01T02:53:42;10.95;;;4.15;;
34988;SDS011;21192;40.182;44.516;2022-08-01T02:56:11;11.75;;;3.92;;
34988;SDS011;21192;40.182;44.516;2022-08-01T02:58:38;13.20;;;3.80;;
34988;SDS011;21192;40.182;44.516;2022-08-01T03:01:05;17.08;;;4.32;;
34988;SDS011;21192;40.182;44.516;2022-08-01T03:03:33;13.50;;;4.07;;
34988;SDS011;21192;40.182;44.516;2022-08-01T03:06:00;12.50;;;3.65;;
34988;SDS011;21192;40.182;44.516;2022-08-01T03:08:28;11.65;;;3.60;;
34988;SDS011;21192;40.182;44.516;2022-08-01T03:10:55;11.50;;;3.78;;
34988;SDS011;21192;40.182;44.516;2022-08-01T03:13:24;18.35;;;4.05;;
34988;SDS011;21192;40.182;44.516;2022-08-01T03:15:52;17.58;;;3.85;;
34988;SDS011;21192;40.182;44.516;2022-08-01T03:18:20;8.65;;;3.78;;
34988;SDS011;21192;40.182;44.516;2022-08-01T03:20:49;15.55;;;4.60;;
34988;SDS011;21192;40.182;44.516;2022-08-01T03:23:17;11.10;;;3.70;;
34988;SDS011;21192;40.182;44.516;2022-08-01T03:25:46;11.10;;;3.20;;
34988;SDS011;21192;40.182;44.516;2022-08-01T03:28:14;8.07;;;3.38;;
34988;SDS011;21192;40.182;44.516;2022-08-01T03:30:42;16.25;;;3.42;;
34988;SDS011;21192;40.182;44.516;2022-08-01T03:33:08;11.25;;;3.03;;
34988;SDS011;21192;40.182;44.516;2022-08-01T03:35:48;11.75;;;3.15;;
34988;SDS011;21192;40.182;44.516;2022-08-01T03:38:19;12.02;;;3.30;;
34988;SDS011;21192;40.182;44.516;2022-08-01T03:43:44;11.52;;;3.88;;
34988;SDS011;21192;40.182;44.516;2022-08-01T03:46:20;14.88;;;3.45;;
34988;SDS011;21192;40.182;44.516;2022-08-01T03:48:50;11.00;;;4.15;;
34988;SDS011;21192;40.182;44.516;2022-08-01T03:51:20;17.73;;;3.80;;
34988;SDS011;21192;40.182;44.516;2022-08-01T03:53:47;16.67;;;4.78;;
34988;SDS011;21192;40.182;44.516;2022-08-01T03:56:18;15.93;;;5.43;;
34988;SDS011;21192;40.182;44.516;2022-08-01T03:58:47;13.52;;;5.20;;
34988;SDS011;21192;40.182;44.516;2022-08-01T04:01:14;18.85;;;5.45;;
34988;SDS011;21192;40.182;44.516;2022-08-01T04:03:41;14.32;;;4.47;;
34988;SDS011;21192;40.182;44.516;2022-08-01T04:06:08;17.35;;;5.25;;
34988;SDS011;21192;40.182;44.516;2022-08-01T04:08:36;16.30;;;5.18;;
34988;SDS011;21192;40.182;44.516;2022-08-01T04:11:02;15.15;;;5.18;;
34988;SDS011;21192;40.182;44.516;2022-08-01T04:13:28;11.48;;;4.43;;
34988;SDS011;21192;40.182;44.516;2022-08-01T04:15:55;11.93;;;4.05;;
34988;SDS011;21192;40.182;44.516;2022-08-01T04:18:21;9.70;;;4.18;;
34988;SDS011;21192;40.182;44.516;2022-08-01T04:20:47;11.07;;;3.75;;
34988;SDS011;21192;40.182;44.516;2022-08-01T04:23:14;13.55;;;5.22;;
34988;SDS011;21192;40.182;44.516;2022-08-01T04:25:42;11.13;;;4.45;;
34988;SDS011;21192;40.182;44.516;2022-08-01T04:28:10;13.60;;;4.90;;
34988;SDS011;21192;40.182;44.516;2022-08-01T04:30:41;13.73;;;5.03;;
34988;SDS011;21192;40.182;44.516;2022-08-01T04:33:10;13.98;;;5.85;;
34988;SDS011;21192;40.182;44.516;2022-08-01T04:35:42;12.30;;;5.13;;
34988;SDS011;21192;40.182;44.516;2022-08-01T04:38:10;13.63;;;5.65;;
34988;SDS011;21192;40.182;44.516;2022-08-01T04:40:42;18.33;;;6.20;;
34988;SDS011;21192;40.182;44.516;2022-08-01T04:43:11;14.10;;;5.88;;
34988;SDS011;21192;40.182;44.516;2022-08-01T04:45:38;20.98;;;6.30;;
34988;SDS011;21192;40.182;44.516;2022-08-01T04:48:04;17.88;;;6.70;;
34988;SDS011;21192;40.182;44.516;2022-08-01T04:50:32;19.65;;;6.75;;
34988;SDS011;21192;40.182;44.516;2022-08-01T04:52:59;20.58;;;7.40;;
34988;SDS011;21192;40.182;44.516;2022-08-01T04:55:28;14.02;;;7.00;;
34988;SDS011;21192;40.182;44.516;2022-08-01T04:57:56;17.13;;;6.93;;
34988;SDS011;21192;40.182;44.516;2022-08-01T05:00:22;19.40;;;7.63;;
34988;SDS011;21192;40.182;44.516;2022-08-01T05:02:48;19.60;;;8.18;;
34988;SDS011;21192;40.182;44.516;2022-08-01T05:05:14;17.80;;;7.38;;
34988;SDS011;21192;40.182;44.516;2022-08-01T05:07:43;18.60;;;7.13;;
34988;SDS011;21192;40.182;44.516;2022-08-01T05:10:09;17.33;;;7.05;;
34988;SDS011;21192;40.182;44.516;2022-08-01T05:12:35;23.23;;;6.68;;
34988;SDS011;21192;40.182;44.516;2022-08-01T05:15:01;13.80;;;5.50;;
34988;SDS011;21192;40.182;44.516;2022-08-01T05:17:27;16.08;;;5.70;;
34988;SDS011;21192;40.182;44.516;2022-08-01T05:19:53;21.23;;;6.78;;
34988;SDS011;21192;40.182;44.516;2022-08-01T05:22:19;14.68;;;5.82;;
34988;SDS011;21192;40.182;44.516;2022-08-01T05:24:45;17.15;;;6.28;;
34988;SDS011;21192;40.182;44.516;2022-08-01T05:27:12;19.40;;;6.47;;
34988;SDS011;21192;40.182;44.516;2022-08-01T05:29:38;17.38;;;5.72;;
34988;SDS011;21192;40.182;44.516;2022-08-01T05:32:05;12.25;;;4.95;;
34988;SDS011;21192;40.182;44.516;2022-08-01T05:34:31;12.57;;;5.22;;
34988;SDS011;21192;40.182;44.516;2022-08-01T05:36:57;12.05;;;4.35;;
34988;SDS011;21192;40.182;44.516;2022-08-01T05:39:23;14.98;;;4.35;;
34988;SDS011;21192;40.182;44.516;2022-08-01T05:41:49;15.75;;;4.78;;
34988;SDS011;21192;40.182;44.516;2022-08-01T05:44:15;15.93;;;4.78;;
34988;SDS011;21192;40.182;44.516;2022-08-01T05:46:41;18.02;;;5.07;;
34988;SDS011;21192;40.182;44.516;2022-08-01T05:49:07;16.63;;;5.57;;
34988;SDS011;21192;40.182;44.516;2022-08-01T05:51:33;25.75;;;5.35;;
34988;SDS011;21192;40.182;44.516;2022-08-01T05:53:59;22.00;;;5.43;;
34988;SDS011;21192;40.182;44.516;2022-08-01T05:56:26;13.70;;;4.30;;
34988;SDS011;21192;40.182;44.516;2022-08-01T05:58:52;15.70;;;4.63;;
34988;SDS011;21192;40.182;44.516;2022-08-01T06:01:18;17.23;;;5.40;;
34988;SDS011;21192;40.182;44.516;2022-08-01T06:03:44;14.40;;;5.13;;
34988;SDS011;21192;40.182;44.516;2022-08-01T06:06:10;23.65;;;6.30;;
34988;SDS011;21192;40.182;44.516;2022-08-01T06:08:39;15.70;;;5.75;;
34988;SDS011;21192;40.182;44.516;2022-08-01T06:11:05;23.58;;;5.88;;
34988;SDS011;21192;40.182;44.516;2022-08-01T06:13:31;20.27;;;6.40;;
34988;SDS011;21192;40.182;44.516;2022-08-01T06:15:57;22.70;;;7.20;;
34988;SDS011;21192;40.182;44.516;2022-08-01T06:18:24;18.85;;;6.88;;
34988;SDS011;21192;40.182;44.516;2022-08-01T06:20:50;19.58;;;6.35;;
34988;SDS011;21192;40.182;44.516;2022-08-01T06:23:16;17.00;;;5.78;;
34988;SDS011;21192;40.182;44.516;2022-08-01T06:25:42;22.50;;;7.05;;
34988;SDS011;21192;40.182;44.516;2022-08-01T06:28:10;25.10;;;6.88;;
34988;SDS011;21192;40.182;44.516;2022-08-01T06:30:36;19.33;;;6.28;;
34988;SDS011;21192;40.182;44.516;2022-08-01T06:33:02;24.05;;;6.38;;
34988;SDS011;21192;40.182;44.516;2022-08-01T06:35:28;15.63;;;5.57;;
34988;SDS011;21192;40.182;44.516;2022-08-01T06:37:55;23.73;;;6.13;;
34988;SDS011;21192;40.182;44.516;2022-08-01T06:40:21;21.75;;;5.57;;
34988;SDS011;21192;40.182;44.516;2022-08-01T06:42:57;10.50;;;4.85;;
34988;SDS011;21192;40.182;44.516;2022-08-01T06:45:23;16.50;;;5.50;;
34988;SDS011;21192;40.182;44.516;2022-08-01T06:47:51;19.85;;;6.00;;
34988;SDS011;21192;40.182;44.516;2022-08-01T06:50:17;22.20;;;5.25;;
34988;SDS011;21192;40.182;44.516;2022-08-01T06:52:43;15.50;;;5.40;;
34988;SDS011;21192;40.182;44.516;2022-08-01T06:55:09;11.05;;;4.60;;
34988;SDS011;21192;40.182;44.516;2022-08-01T06:57:35;16.38;;;6.07;;
34988;SDS011;21192;40.182;44.516;2022-08-01T07:00:05;18.00;;;4.57;;
34988;SDS011;21192;40.182;44.516;2022-08-01T07:02:36;19.83;;;5.50;;
34988;SDS011;21192;40.182;44.516;2022-08-01T07:05:03;20.85;;;5.63;;
34988;SDS011;21192;40.182;44.516;2022-08-01T07:07:30;13.80;;;4.72;;
34988;SDS011;21192;40.182;44.516;2022-08-01T07:09:56;18.80;;;5.60;;
34988;SDS011;21192;40.182;44.516;2022-08-01T07:12:22;23.95;;;6.78;;
34988;SDS011;21192;40.182;44.516;2022-08-01T07:14:48;20.50;;;6.07;;
34988;SDS011;21192;40.182;44.516;2022-08-01T07:17:14;18.92;;;6.32;;
34988;SDS011;21192;40.182;44.516;2022-08-01T07:19:40;24.52;;;7.05;;
34988;SDS011;21192;40.182;44.516;2022-08-01T07:22:06;17.48;;;5.30;;
34988;SDS011;21192;40.182;44.516;2022-08-01T07:24:32;25.33;;;5.97;;
34988;SDS011;21192;40.182;44.516;2022-08-01T07:26:58;23.65;;;6.00;;
34988;SDS011;21192;40.182;44.516;2022-08-01T07:29:24;19.90;;;7.35;;
34988;SDS011;21192;40.182;44.516;2022-08-01T07:31:53;14.63;;;5.50;;
34988;SDS011;21192;40.182;44.516;2022-08-01T07:34:21;21.75;;;6.57;;
34988;SDS011;21192;40.182;44.516;2022-08-01T07:36:47;20.25;;;6.72;;
34988;SDS011;21192;40.182;44.516;2022-08-01T07:39:14;25.13;;;5.95;;
34988;SDS011;21192;40.182;44.516;2022-08-01T07:41:40;24.52;;;6.22;;
34988;SDS011;21192;40.182;44.516;2022-08-01T07:44:06;21.77;;;5.40;;
34988;SDS011;21192;40.182;44.516;2022-08-01T07:46:32;19.92;;;5.40;;
34988;SDS011;21192;40.182;44.516;2022-08-01T07:48:58;19.48;;;5.32;;
34988;SDS011;21192;40.182;44.516;2022-08-01T07:51:24;14.45;;;4.63;;
34988;SDS011;21192;40.182;44.516;2022-08-01T07:53:50;23.83;;;5.72;;
34988;SDS011;21192;40.182;44.516;2022-08-01T07:56:16;18.98;;;6.88;;
34988;SDS011;21192;40.182;44.516;2022-08-01T07:58:42;9.55;;;4.70;;
34988;SDS011;21192;40.182;44.516;2022-08-01T08:01:08;16.85;;;6.35;;
34988;SDS011;21192;40.182;44.516;2022-08-01T08:03:34;21.20;;;7.95;;
34988;SDS011;21192;40.182;44.516;2022-08-01T08:06:00;18.25;;;5.63;;
34988;SDS011;21192;40.182;44.516;2022-08-01T08:08:26;20.65;;;5.75;;
34988;SDS011;21192;40.182;44.516;2022-08-01T08:10:52;16.52;;;6.22;;
34988;SDS011;21192;40.182;44.516;2022-08-01T08:13:18;14.80;;;5.28;;
34988;SDS011;21192;40.182;44.516;2022-08-01T08:15:44;22.98;;;6.72;;
34988;SDS011;21192;40.182;44.516;2022-08-01T08:18:10;21.45;;;5.43;;
34988;SDS011;21192;40.182;44.516;2022-08-01T08:20:36;15.07;;;5.72;;
34988;SDS011;21192;40.182;44.516;2022-08-01T08:23:02;17.40;;;5.22;;
34988;SDS011;21192;40.182;44.516;2022-08-01T08:25:48;13.60;;;5.35;;
34988;SDS011;21192;40.182;44.516;2022-08-01T08:28:15;16.17;;;5.30;;
34988;SDS011;21192;40.182;44.516;2022-08-01T08:30:41;14.52;;;5.00;;
34988;SDS011;21192;40.182;44.516;2022-08-01T08:33:07;17.40;;;6.47;;
34988;SDS011;21192;40.182;44.516;2022-08-01T08:35:33;21.88;;;7.10;;
34988;SDS011;21192;40.182;44.516;2022-08-01T08:37:59;16.13;;;5.85;;
34988;SDS011;21192;40.182;44.516;2022-08-01T08:40:25;18.58;;;5.47;;
34988;SDS011;21192;40.182;44.516;2022-08-01T08:42:55;21.15;;;6.45;;
34988;SDS011;21192;40.182;44.516;2022-08-01T08:45:25;20.70;;;7.72;;
34988;SDS011;21192;40.182;44.516;2022-08-01T08:47:52;12.95;;;6.20;;
34988;SDS011;21192;40.182;44.516;2022-08-01T08:50:20;14.20;;;5.95;;
34988;SDS011;21192;40.182;44.516;2022-08-01T08:52:46;26.15;;;6.82;;
34988;SDS011;21192;40.182;44.516;2022-08-01T08:55:13;25.05;;;6.95;;
34988;SDS011;21192;40.182;44.516;2022-08-01T08:57:43;17.48;;;5.93;;
34988;SDS011;21192;40.182;44.516;2022-08-01T09:00:11;15.45;;;5.10;;
34988;SDS011;21192;40.182;44.516;2022-08-01T09:02:42;14.75;;;4.93;;
34988;SDS011;21192;40.182;44.516;2022-08-01T09:05:10;19.75;;;5.38;;
34988;SDS011;21192;40.182;44.516;2022-08-01T09:07:36;24.50;;;7.45;;
34988;SDS011;21192;40.182;44.516;2022-08-01T09:10:03;22.33;;;6.72;;
34988;SDS011;21192;40.182;44.516;2022-08-01T09:12:30;25.27;;;6.65;;
34988;SDS011;21192;40.182;44.516;2022-08-01T09:14:56;20.02;;;6.55;;
34988;SDS011;21192;40.182;44.516;2022-08-01T09:17:22;14.48;;;5.68;;
34988;SDS011;21192;40.182;44.516;2022-08-01T09:19:53;23.58;;;7.45;;
34988;SDS011;21192;40.182;44.516;2022-08-01T09:22:24;21.30;;;6.32;;
34988;SDS011;21192;40.182;44.516;2022-08-01T09:24:57;19.83;;;6.70;;
34988;SDS011;21192;40.182;44.516;2022-08-01T09:27:29;16.55;;;7.22;;
34988;SDS011;21192;40.182;44.516;2022-08-01T09:30:07;18.27;;;6.30;;
34988;SDS011;21192;40.182;44.516;2022-08-01T09:32:37;14.90;;;5.47;;
34988;SDS011;21192;40.182;44.516;2022-08-01T09:35:37;21.15;;;6.97;;
34988;SDS011;21192;40.182;44.516;2022-08-01T09:38:19;12.40;;;4.55;;
34988;SDS011;21192;40.182;44.516;2022-08-01T09:40:48;17.02;;;5.10;;
34988;SDS011;21192;40.182;44.516;2022-08-01T09:43:20;15.32;;;4.32;;
34988;SDS011;21192;40.182;44.516;2022-08-01T09:45:47;12.60;;;4.07;;
34988;SDS011;21192;40.182;44.516;2022-08-01T09:48:13;16.58;;;6.65;;
34988;SDS011;21192;40.182;44.516;2022-08-01T09:50:43;21.25;;;6.13;;
34988;SDS011;21192;40.182;44.516;2022-08-01T09:53:12;13.32;;;5.38;;
34988;SDS011;21192;40.182;44.516;2022-08-01T09:55:39;22.20;;;5.70;;
34988;SDS011;21192;40.182;44.516;2022-08-01T09:58:06;18.95;;;6.40;;
34988;SDS011;21192;40.182;44.516;2022-08-01T10:00:34;12.07;;;4.95;;
34988;SDS011;21192;40.182;44.516;2022-08-01T10:03:18;18.42;;;6.32;;
34988;SDS011;21192;40.182;44.516;2022-08-01T10:05:48;14.20;;;5.40;;
34988;SDS011;21192;40.182;44.516;2022-08-01T10:08:16;17.95;;;5.90;;
34988;SDS011;21192;40.182;44.516;2022-08-01T10:10:43;17.02;;;5.70;;
34988;SDS011;21192;40.182;44.516;2022-08-01T10:13:35;15.43;;;5.60;;
34988;SDS011;21192;40.182;44.516;2022-08-01T10:16:01;12.40;;;5.53;;
34988;SDS011;21192;40.182;44.516;2022-08-01T10:18:30;12.27;;;4.50;;
34988;SDS011;21192;40.182;44.516;2022-08-01T10:20:59;10.73;;;4.13;;
34988;SDS011;21192;40.182;44.516;2022-08-01T10:23:27;22.35;;;6.47;;
34988;SDS011;21192;40.182;44.516;2022-08-01T10:25:55;14.10;;;5.45;;
34988;SDS011;21192;40.182;44.516;2022-08-01T10:28:24;14.88;;;3.75;;
34988;SDS011;21192;40.182;44.516;2022-08-01T10:30:51;14.10;;;4.70;;
34988;SDS011;21192;40.182;44.516;2022-08-01T10:33:18;11.93;;;4.03;;
34988;SDS011;21192;40.182;44.516;2022-08-01T10:35:46;16.05;;;5.32;;
34988;SDS011;21192;40.182;44.516;2022-08-01T10:38:12;15.15;;;5.20;;
34988;SDS011;21192;40.182;44.516;2022-08-01T10:40:39;18.10;;;5.45;;
34988;SDS011;21192;40.182;44.516;2022-08-01T10:43:10;22.25;;;7.72;;
34988;SDS011;21192;40.182;44.516;2022-08-01T10:45:37;16.77;;;6.75;;
34988;SDS011;21192;40.182;44.516;2022-08-01T10:50:36;18.90;;;5.85;;
34988;SDS011;21192;40.182;44.516;2022-08-01T10:53:15;17.98;;;7.07;;
34988;SDS011;21192;40.182;44.516;2022-08-01T10:55:46;23.55;;;6.82;;
34988;SDS011;21192;40.182;44.516;2022-08-01T10:58:24;26.38;;;6.22;;
34988;SDS011;21192;40.182;44.516;2022-08-01T11:08:58;19.40;;;6.57;;
34988;SDS011;21192;40.182;44.516;2022-08-01T11:11:29;19.42;;;5.95;;
34988;SDS011;21192;40.182;44.516;2022-08-01T11:16:37;18.73;;;7.55;;
34988;SDS011;21192;40.182;44.516;2022-08-01T11:19:05;24.85;;;7.32;;
34988;SDS011;21192;40.182;44.516;2022-08-01T11:27:18;17.55;;;4.40;;
34988;SDS011;21192;40.182;44.516;2022-08-01T11:30:21;24.55;;;7.63;;
34988;SDS011;21192;40.182;44.516;2022-08-01T11:32:50;23.65;;;5.63;;
34988;SDS011;21192;40.182;44.516;2022-08-01T11:35:22;15.52;;;5.18;;
34988;SDS011;21192;40.182;44.516;2022-08-01T11:37:52;23.35;;;6.50;;
34988;SDS011;21192;40.182;44.516;2022-08-01T11:40:23;16.60;;;7.68;;
34988;SDS011;21192;40.182;44.516;2022-08-01T11:48:21;22.17;;;7.15;;
34988;SDS011;21192;40.182;44.516;2022-08-01T11:50:52;21.83;;;6.80;;
34988;SDS011;21192;40.182;44.516;2022-08-01T11:53:21;17.60;;;6.70;;
34988;SDS011;21192;40.182;44.516;2022-08-01T11:55:49;21.85;;;6.65;;
34988;SDS011;21192;40.182;44.516;2022-08-01T11:58:19;22.65;;;6.93;;
34988;SDS011;21192;40.182;44.516;2022-08-01T12:00:54;19.52;;;5.70;;
34988;SDS011;21192;40.182;44.516;2022-08-01T12:03:25;31.13;;;7.25;;
34988;SDS011;21192;40.182;44.516;2022-08-01T12:05:55;17.40;;;4.80;;
34988;SDS011;21192;40.182;44.516;2022-08-01T12:08:29;21.40;;;4.93;;
34988;SDS011;21192;40.182;44.516;2022-08-01T12:11:02;19.30;;;6.00;;
34988;SDS011;21192;40.182;44.516;2022-08-01T12:13:43;20.13;;;6.22;;
34988;SDS011;21192;40.182;44.516;2022-08-01T12:16:10;13.98;;;5.80;;
34988;SDS011;21192;40.182;44.516;2022-08-01T12:18:40;13.05;;;4.85;;
34988;SDS011;21192;40.182;44.516;2022-08-01T12:21:07;19.13;;;6.30;;
34988;SDS011;21192;40.182;44.516;2022-08-01T12:23:33;20.20;;;6.38;;
34988;SDS011;21192;40.182;44.516;2022-08-01T12:25:59;15.20;;;4.75;;
34988;SDS011;21192;40.182;44.516;2022-08-01T12:28:26;16.67;;;5.18;;
34988;SDS011;21192;40.182;44.516;2022-08-01T12:30:52;13.98;;;5.15;;
34988;SDS011;21192;40.182;44.516;2022-08-01T12:33:19;14.93;;;6.35;;
34988;SDS011;21192;40.182;44.516;2022-08-01T12:35:46;22.08;;;6.70;;
34988;SDS011;21192;40.182;44.516;2022-08-01T12:38:16;20.92;;;6.80;;
34988;SDS011;21192;40.182;44.516;2022-08-01T12:40:45;16.27;;;5.00;;
34988;SDS011;21192;40.182;44.516;2022-08-01T12:43:17;15.18;;;5.53;;
34988;SDS011;21192;40.182;44.516;2022-08-01T12:45:44;28.27;;;7.10;;
34988;SDS011;21192;40.182;44.516;2022-08-01T12:48:14;30.13;;;6.22;;
34988;SDS011;21192;40.182;44.516;2022-08-01T12:50:45;26.95;;;8.07;;
34988;SDS011;21192;40.182;44.516;2022-08-01T12:53:13;26.38;;;8.95;;
34988;SDS011;21192;40.182;44.516;2022-08-01T12:55:47;19.15;;;7.57;;
34988;SDS011;21192;40.182;44.516;2022-08-01T12:58:18;30.05;;;8.80;;
34988;SDS011;21192;40.182;44.516;2022-08-01T13:00:46;23.30;;;7.65;;
34988;SDS011;21192;40.182;44.516;2022-08-01T13:03:17;24.00;;;7.53;;
34988;SDS011;21192;40.182;44.516;2022-08-01T13:05:54;22.15;;;6.65;;
34988;SDS011;21192;40.182;44.516;2022-08-01T13:13:33;15.45;;;6.70;;
34988;SDS011;21192;40.182;44.516;2022-08-01T13:16:25;22.60;;;6.07;;
34988;SDS011;21192;40.182;44.516;2022-08-01T13:18:53;22.77;;;7.10;;
34988;SDS011;21192;40.182;44.516;2022-08-01T13:21:28;18.17;;;7.78;;
34988;SDS011;21192;40.182;44.516;2022-08-01T13:24:07;15.95;;;6.10;;
34988;SDS011;21192;40.182;44.516;2022-08-01T13:26:46;21.88;;;5.80;;
34988;SDS011;21192;40.182;44.516;2022-08-01T13:29:19;24.30;;;7.60;;
34988;SDS011;21192;40.182;44.516;2022-08-01T13:31:46;25.00;;;8.93;;
34988;SDS011;21192;40.182;44.516;2022-08-01T13:34:12;25.35;;;8.23;;
34988;SDS011;21192;40.182;44.516;2022-08-01T13:36:39;24.15;;;8.73;;
34988;SDS011;21192;40.182;44.516;2022-08-01T13:39:05;23.92;;;7.00;;
34988;SDS011;21192;40.182;44.516;2022-08-01T13:42:11;26.13;;;8.68;;
34988;SDS011;21192;40.182;44.516;2022-08-01T13:44:39;19.15;;;6.47;;
34988;SDS011;21192;40.182;44.516;2022-08-01T13:47:06;33.58;;;9.32;;
34988;SDS011;21192;40.182;44.516;2022-08-01T13:49:33;23.85;;;8.07;;
34988;SDS011;21192;40.182;44.516;2022-08-01T13:52:00;17.10;;;6.70;;
34988;SDS011;21192;40.182;44.516;2022-08-01T13:54:26;19.05;;;7.35;;
34988;SDS011;21192;40.182;44.516;2022-08-01T13:56:52;24.60;;;10.85;;
34988;SDS011;21192;40.182;44.516;2022-08-01T13:59:18;20.88;;;7.53;;
34988;SDS011;21192;40.182;44.516;2022-08-01T14:01:45;19.83;;;6.53;;
34988;SDS011;21192;40.182;44.516;2022-08-01T14:04:12;26.02;;;7.57;;
34988;SDS011;21192;40.182;44.516;2022-08-01T14:06:38;32.70;;;9.30;;
34988;SDS011;21192;40.182;44.516;2022-08-01T14:09:04;23.40;;;7.95;;
34988;SDS011;21192;40.182;44.516;2022-08-01T14:11:31;21.60;;;6.32;;
34988;SDS011;21192;40.182;44.516;2022-08-01T14:13:57;17.67;;;7.45;;
34988;SDS011;21192;40.182;44.516;2022-08-01T14:16:23;13.70;;;4.97;;
34988;SDS011;21192;40.182;44.516;2022-08-01T14:18:49;39.25;;;16.60;;
34988;SDS011;21192;40.182;44.516;2022-08-01T14:21:16;20.45;;;7.93;;
34988;SDS011;21192;40.182;44.516;2022-08-01T14:23:42;17.55;;;6.43;;
34988;SDS011;21192;40.182;44.516;2022-08-01T14:26:08;21.90;;;7.50;;
34988;SDS011;21192;40.182;44.516;2022-08-01T14:28:35;16.42;;;5.82;;
34988;SDS011;21192;40.182;44.516;2022-08-01T14:31:02;14.15;;;6.53;;
34988;SDS011;21192;40.182;44.516;2022-08-01T14:33:28;23.05;;;8.30;;
34988;SDS011;21192;40.182;44.516;2022-08-01T14:35:54;22.05;;;7.55;;
34988;SDS011;21192;40.182;44.516;2022-08-01T14:38:20;16.33;;;6.63;;
34988;SDS011;21192;40.182;44.516;2022-08-01T14:40:46;23.90;;;8.23;;
34988;SDS011;21192;40.182;44.516;2022-08-01T14:43:16;19.95;;;7.47;;
34988;SDS011;21192;40.182;44.516;2022-08-01T14:45:43;18.23;;;6.00;;
34988;SDS011;21192;40.182;44.516;2022-08-01T14:48:09;19.25;;;6.25;;
34988;SDS011;21192;40.182;44.516;2022-08-01T14:50:35;13.73;;;5.97;;
34988;SDS011;21192;40.182;44.516;2022-08-01T14:53:01;19.35;;;9.77;;
34988;SDS011;21192;40.182;44.516;2022-08-01T14:55:27;19.98;;;7.95;;
34988;SDS011;21192;40.182;44.516;2022-08-01T14:57:53;20.15;;;7.72;;
34988;SDS011;21192;40.182;44.516;2022-08-01T15:00:19;20.98;;;8.02;;
34988;SDS011;21192;40.182;44.516;2022-08-01T15:02:46;19.35;;;8.23;;
34988;SDS011;21192;40.182;44.516;2022-08-01T15:05:12;18.40;;;8.68;;
34988;SDS011;21192;40.182;44.516;2022-08-01T15:07:38;26.38;;;7.55;;
34988;SDS011;21192;40.182;44.516;2022-08-01T15:10:05;17.60;;;6.78;;
34988;SDS011;21192;40.182;44.516;2022-08-01T15:12:31;23.92;;;10.10;;
34988;SDS011;21192;40.182;44.516;2022-08-01T15:14:59;26.35;;;8.23;;